This is the latest recevied weather packets stored in our database for station/object DB0LS-15. If no packets are shown the sender has not sent any weather packets the latest 1 day(s).
| Time | Temp. | Humidity | Pressure | Rain* | Wind** | Luminosity | Snow |
|---|---|---|---|---|---|---|---|
| 1778065536 | 16.11° C | 82% | 987.7 hPa | 0 mm | - | - | - |
| 1778064932 | 15.56° C | 83% | 987.8 hPa | 0 mm | - | - | - |
| 1778063724 | 15.56° C | 85% | 987.7 hPa | 0 mm | - | - | - |
| 1778063121 | 15.56° C | 85% | 987.6 hPa | 0 mm | - | - | - |
| 1778062517 | 16.11° C | 82% | 987.5 hPa | 0 mm | - | - | - |
| 1778060766 | 15.56° C | 85% | 987.3 hPa | 0 mm | - | - | - |
| 1778060162 | 15.56° C | 85% | 987.2 hPa | 0 mm | - | - | - |
| 1778058955 | 15° C | 87% | 987 hPa | 0 mm | - | - | - |
| 1778058351 | 14.44° C | 88% | 986.8 hPa | 0 mm | - | - | - |
| 1778056540 | 15.56° C | 86% | 986.2 hPa | 0 mm | - | - | - |
| 1778055936 | 14.44° C | 88% | 986.2 hPa | 0 mm | - | - | - |
| 1778055332 | 14.44° C | 89% | 986.2 hPa | 0 mm | - | - | - |
| 1778054728 | 14.44° C | 89% | 986.2 hPa | 0 mm | - | - | - |
| 1778053521 | 15° C | 88% | 986 hPa | 0 mm | - | - | - |
| 1778052917 | 13.89° C | 90% | 986.2 hPa | 0 mm | - | - | - |
| 1778049958 | 12.78° C | 96% | 986 hPa | 0 mm | - | - | - |
| 1778049354 | 12.78° C | 97% | 985.9 hPa | 0 mm | - | - | - |
| 1778048750 | 12.78° C | 97% | 985.9 hPa | 0 mm | - | - | - |
| 1778047543 | 12.22° C | 98% | 985.7 hPa | 0 mm | - | - | - |
| 1778046335 | 12.22° C | 99% | 985.7 hPa | 0 mm | - | - | - |
| 1778045128 | 12.78° C | 99% | 985.7 hPa | 0 mm | - | - | - |
| 1778044524 | 12.22° C | 99% | 985.7 hPa | 0 mm | - | - | - |
| 1778043316 | 12.22° C | 99% | 985.8 hPa | 0 mm | - | - | - |
| 1778042772 | 12.22° C | 99% | 985.9 hPa | 0 mm | - | - | - |
| 1778042169 | 12.22° C | 99% | 985.9 hPa | 0 mm | - | - | - |
* Rain latest hour (hover to see other rain measurements)
** Current wind speed in m/s (hover to see current wind gust speed)